Time;durP1;ratioP1;P1;durP2;ratioP2;P2;SDS_P1;SDS_P2;PMS_P1;PMS_P2;Temp;Humidity;BMP_temperature;BMP_pressure;BME280_temperature;BME280_humidity;BME280_pressure;Samples;Min_cycle;Max_cycle;Signal;HPM_P1;HPM_P2
2022/03/04 00:01:14;;;;;;;0.93;0.93;;;-2.40;11.10;;;;;;5050421;28;20207;-73
2022/03/04 00:03:39;;;;;;;0.90;0.90;;;-2.30;1.00;;;;;;5050231;28;20543;-73
2022/03/04 00:06:05;;;;;;;1.00;1.00;;;-2.30;1.00;;;;;;5050374;28;20179;-72
2022/03/04 00:08:31;;;;;;;0.87;0.87;;;-2.10;1.00;;;;;;5050192;28;20271;-75
2022/03/04 00:10:56;;;;;;;0.90;0.90;;;-1.80;99.90;;;;;;5049594;28;20191;-74
2022/03/04 00:13:22;;;;;;;0.80;0.80;;;-2.00;99.90;;;;;;5051466;28;20179;-74
2022/03/04 00:15:48;;;;;;;0.90;0.90;;;-2.10;1.00;;;;;;5056568;28;20194;-73
2022/03/04 00:18:14;;;;;;;0.90;0.90;;;-2.10;99.90;;;;;;5057105;28;20270;-72
2022/03/04 00:20:40;;;;;;;0.90;0.90;;;-2.00;83.10;;;;;;5056177;28;20194;-73
2022/03/04 00:23:06;;;;;;;0.90;0.90;;;-2.00;99.90;;;;;;5051100;28;20175;-74
2022/03/04 00:25:31;;;;;;;1.00;1.00;;;-2.00;1.00;;;;;;5050180;28;20179;-74
2022/03/04 00:27:57;;;;;;;0.90;0.90;;;-2.10;99.90;;;;;;5050008;28;20199;-73
2022/03/04 00:30:22;;;;;;;0.90;0.90;;;-2.10;1.00;;;;;;5049273;28;20195;-74
2022/03/04 00:32:48;;;;;;;1.00;1.00;;;-2.10;1.00;;;;;;5050048;28;20353;-73
2022/03/04 00:35:13;;;;;;;0.80;0.80;;;-2.10;99.90;;;;;;5050158;28;20182;-73
2022/03/04 00:37:40;;;;;;;0.87;0.87;;;-2.00;1.00;;;;;;5049872;28;20175;-73
2022/03/04 00:40:07;;;;;;;1.00;1.00;;;-2.10;99.90;;;;;;5049328;28;20256;-74
2022/03/04 00:42:33;;;;;;;0.90;0.90;;;-2.10;99.90;;;;;;5049795;28;20258;-74
2022/03/04 00:44:59;;;;;;;0.93;0.93;;;-2.10;1.00;;;;;;5049696;28;20270;-74
2022/03/04 00:47:24;;;;;;;0.90;0.90;;;-2.30;1.00;;;;;;5049655;28;20231;-74
2022/03/04 00:49:50;;;;;;;0.90;0.90;;;-2.30;1.00;;;;;;5049237;28;20664;-74
2022/03/04 00:52:15;;;;;;;0.90;0.90;;;-2.40;99.90;;;;;;5049562;28;20179;-74
2022/03/04 00:54:41;;;;;;;0.90;0.90;;;-2.40;99.90;;;;;;5049901;28;20179;-74
2022/03/04 00:57:06;;;;;;;0.80;0.80;;;-2.50;1.00;;;;;;5049656;28;20542;-73
2022/03/04 00:59:32;;;;;;;0.90;0.90;;;-2.40;1.00;;;;;;5052402;28;20191;-74
2022/03/04 01:01:58;;;;;;;0.90;0.90;;;-2.50;1.00;;;;;;5053529;28;20182;-74
2022/03/04 01:04:24;;;;;;;0.90;0.90;;;-2.50;1.00;;;;;;5053752;28;20175;-72
2022/03/04 01:06:49;;;;;;;0.90;0.90;;;-2.50;1.00;;;;;;5054499;28;20199;-72
2022/03/04 01:09:15;;;;;;;0.90;0.90;;;-2.60;1.00;;;;;;5053886;28;20227;-72
2022/03/04 01:11:41;;;;;;;0.87;0.87;;;-2.60;99.90;;;;;;5054308;28;20203;-71
2022/03/04 01:14:07;;;;;;;0.97;0.97;;;-2.60;99.90;;;;;;5053988;28;20179;-74
2022/03/04 01:16:33;;;;;;;0.90;0.90;;;-2.60;1.00;;;;;;5052931;28;20637;-75
2022/03/04 01:18:58;;;;;;;0.90;0.90;;;-2.70;53.60;;;;;;5052657;28;20175;-74
2022/03/04 01:21:24;;;;;;;0.87;0.87;;;-2.90;1.00;;;;;;5053012;28;20221;-74
2022/03/04 01:23:49;;;;;;;0.90;0.90;;;-2.90;1.00;;;;;;5053030;28;20190;-74
2022/03/04 01:26:15;;;;;;;1.00;1.00;;;-2.80;1.00;;;;;;5052881;28;20179;-74
2022/03/04 01:28:40;;;;;;;0.87;0.87;;;-3.00;1.00;;;;;;5052572;28;20745;-74
2022/03/04 01:31:09;;;;;;;0.87;0.87;;;-3.00;1.00;;;;;;5052165;28;20656;-74
2022/03/04 01:33:35;;;;;;;0.90;0.90;;;-3.10;1.00;;;;;;5052747;28;20206;-74
2022/03/04 01:36:01;;;;;;;0.90;0.90;;;-3.00;1.00;;;;;;5052786;28;20269;-74
2022/03/04 01:38:26;;;;;;;0.90;0.90;;;-3.10;99.90;;;;;;5052828;28;20175;-74
2022/03/04 01:40:52;;;;;;;0.90;0.90;;;-3.10;1.00;;;;;;5052129;28;20187;-74
2022/03/04 01:43:17;;;;;;;0.90;0.90;;;-3.10;1.00;;;;;;5052743;28;20206;-73
2022/03/04 01:45:43;;;;;;;0.90;0.90;;;-3.00;1.00;;;;;;5052643;28;20524;-73
2022/03/04 01:48:08;;;;;;;1.00;1.00;;;-3.10;99.90;;;;;;5052630;28;20243;-74
2022/03/04 01:50:35;;;;;;;0.70;0.70;;;-3.20;1.00;;;;;;5051777;28;20203;-73
2022/03/04 01:53:01;;;;;;;0.90;0.90;;;-3.30;19.10;;;;;;5052509;28;20187;-73
2022/03/04 01:55:27;;;;;;;0.90;0.90;;;-3.30;29.30;;;;;;5052104;28;20179;-72
2022/03/04 01:57:52;;;;;;;0.90;0.90;;;-3.30;99.90;;;;;;5052171;28;20190;-73
2022/03/04 02:00:18;;;;;;;0.90;0.90;;;-3.50;1.00;;;;;;5051532;28;20305;-73
2022/03/04 02:02:45;;;;;;;0.83;0.83;;;-3.60;99.90;;;;;;5052285;28;20618;-73
2022/03/04 02:05:17;;;;;;;0.90;0.90;;;-3.50;93.40;;;;;;5052351;28;20221;-73
2022/03/04 02:07:44;;;;;;;0.97;0.97;;;-3.50;99.90;;;;;;5051996;28;20207;-74
2022/03/04 02:10:10;;;;;;;0.90;0.90;;;-3.50;99.90;;;;;;5050993;28;20241;-74
2022/03/04 02:12:36;;;;;;;0.90;0.90;;;-3.50;96.00;;;;;;5051933;28;20175;-72
2022/03/04 02:15:04;;;;;;;0.90;0.90;;;-3.60;99.90;;;;;;5052296;28;20182;-73
2022/03/04 02:17:30;;;;;;;0.97;0.97;;;-3.70;99.90;;;;;;5052190;28;20210;-74
2022/03/04 02:19:57;;;;;;;0.90;0.90;;;-3.50;99.90;;;;;;5051429;28;20227;-74
2022/03/04 02:22:23;;;;;;;1.00;1.00;;;-3.40;99.90;;;;;;5051881;28;20217;-74
2022/03/04 02:24:49;;;;;;;1.00;1.00;;;-3.40;99.90;;;;;;5051845;28;20209;-74
2022/03/04 02:27:15;;;;;;;0.90;0.90;;;-3.40;99.90;;;;;;5051657;28;20183;-74
2022/03/04 02:29:40;;;;;;;0.90;0.90;;;-3.50;99.90;;;;;;5051134;28;20229;-74
2022/03/04 02:32:06;;;;;;;0.90;0.90;;;-3.50;99.90;;;;;;5051697;28;20191;-74
2022/03/04 02:34:31;;;;;;;0.83;0.83;;;-3.50;99.90;;;;;;5051476;28;20217;-73
2022/03/04 02:36:57;;;;;;;0.90;0.90;;;-3.50;99.90;;;;;;5051785;28;20179;-75
2022/03/04 02:39:23;;;;;;;0.90;0.90;;;-3.60;99.90;;;;;;5050990;28;20525;-74
2022/03/04 02:41:49;;;;;;;1.00;1.00;;;-3.60;42.60;;;;;;5051429;28;20194;-74
2022/03/04 02:44:15;;;;;;;0.90;0.90;;;-3.60;99.90;;;;;;5051739;28;20247;-74
2022/03/04 02:46:41;;;;;;;0.90;0.90;;;-3.60;99.90;;;;;;5051564;28;20600;-73
2022/03/04 02:49:08;;;;;;;0.90;0.90;;;-3.60;1.00;;;;;;5050680;28;20695;-73
2022/03/04 02:51:34;;;;;;;0.90;0.90;;;-3.60;1.00;;;;;;5051255;28;20175;-73
2022/03/04 02:54:00;;;;;;;0.90;0.90;;;-3.70;1.00;;;;;;5051291;28;20637;-73
2022/03/04 02:56:25;;;;;;;0.90;0.90;;;-3.70;1.00;;;;;;5051192;28;20183;-74
2022/03/04 02:58:51;;;;;;;1.00;1.00;;;-3.60;69.50;;;;;;5050876;28;20225;-73
2022/03/04 03:01:17;;;;;;;0.90;0.90;;;-3.70;24.30;;;;;;5051131;28;20667;-73
2022/03/04 03:03:42;;;;;;;0.80;0.80;;;-3.70;99.90;;;;;;5051178;28;20178;-74
2022/03/04 03:06:08;;;;;;;0.90;0.90;;;-3.70;1.00;;;;;;5051207;28;20254;-73
2022/03/04 03:08:34;;;;;;;0.90;0.90;;;-3.80;1.00;;;;;;5050854;28;20217;-73
2022/03/04 03:10:59;;;;;;;1.00;1.00;;;-3.80;99.90;;;;;;5050418;28;20199;-73
2022/03/04 03:13:25;;;;;;;0.90;0.90;;;-3.80;99.90;;;;;;5051016;28;20175;-74
2022/03/04 03:15:51;;;;;;;0.90;0.90;;;-3.90;33.30;;;;;;5050963;28;20175;-72
2022/03/04 03:18:17;;;;;;;0.90;0.90;;;-3.90;99.90;;;;;;5051561;28;20521;-73
2022/03/04 03:20:43;;;;;;;0.90;0.90;;;-3.90;99.90;;;;;;5049892;28;20244;-73
2022/03/04 03:23:09;;;;;;;0.90;0.90;;;-3.90;99.90;;;;;;5050140;28;20171;-74
2022/03/04 03:25:35;;;;;;;1.00;1.00;;;-4.00;99.90;;;;;;5050676;28;20177;-74
2022/03/04 03:28:02;;;;;;;0.93;0.93;;;-4.00;99.90;;;;;;5050802;28;20218;-74
2022/03/04 03:30:28;;;;;;;1.00;1.00;;;-4.00;1.00;;;;;;5050268;28;20202;-74
2022/03/04 03:32:53;;;;;;;0.97;0.97;;;-4.10;1.00;;;;;;5050378;28;20199;-74
2022/03/04 03:35:19;;;;;;;0.90;0.90;;;-4.20;99.90;;;;;;5050560;28;20271;-74
2022/03/04 03:37:44;;;;;;;0.90;0.90;;;-4.20;1.00;;;;;;5050405;28;20188;-73
2022/03/04 03:40:11;;;;;;;0.90;0.90;;;-4.20;99.90;;;;;;5049950;28;20234;-74
2022/03/04 03:42:39;;;;;;;0.90;0.90;;;-4.20;1.00;;;;;;5050648;28;20175;-74
2022/03/04 03:45:06;;;;;;;0.90;0.90;;;-4.20;1.00;;;;;;5050677;28;20270;-73
2022/03/04 03:47:32;;;;;;;0.90;0.90;;;-4.20;1.00;;;;;;5050470;28;20222;-73
2022/03/04 03:49:57;;;;;;;0.93;0.93;;;-4.20;1.00;;;;;;5049909;28;20202;-71
2022/03/04 03:52:23;;;;;;;0.90;0.90;;;-4.20;1.00;;;;;;5050524;28;20535;-72
2022/03/04 03:54:49;;;;;;;0.90;0.90;;;-4.30;1.00;;;;;;5050594;28;20313;-73
2022/03/04 03:57:14;;;;;;;1.00;1.00;;;-4.30;1.00;;;;;;5050723;28;20309;-72
2022/03/04 03:59:40;;;;;;;1.00;1.00;;;-4.30;1.00;;;;;;5049635;28;20206;-73
2022/03/04 04:02:05;;;;;;;0.90;0.90;;;-4.30;1.00;;;;;;5050352;28;20175;-73
2022/03/04 04:04:34;;;;;;;0.90;0.90;;;-4.40;99.90;;;;;;5050784;28;20179;-73
2022/03/04 04:07:10;;;;;;;0.90;0.90;;;-4.40;1.00;;;;;;5050058;28;20183;-73
2022/03/04 04:09:36;;;;;;;0.90;0.90;;;-4.50;1.00;;;;;;5049886;28;20237;-72
2022/03/04 04:12:02;;;;;;;0.80;0.80;;;-4.40;1.00;;;;;;5050342;28;20197;-73
2022/03/04 04:14:28;;;;;;;0.97;0.97;;;-4.30;1.00;;;;;;5050211;28;20732;-73
2022/03/04 04:16:55;;;;;;;0.80;0.80;;;-4.30;1.00;;;;;;5049952;28;20171;-73
2022/03/04 04:19:22;;;;;;;0.90;0.90;;;-4.40;1.00;;;;;;5049636;28;20191;-73
2022/03/04 04:21:47;;;;;;;0.90;0.90;;;-4.30;1.00;;;;;;5049970;28;20193;-73
2022/03/04 04:24:13;;;;;;;1.00;1.00;;;-4.20;1.00;;;;;;5050018;28;20254;-73
2022/03/04 04:26:39;;;;;;;1.00;1.00;;;-4.30;1.00;;;;;;5050138;28;20183;-73
2022/03/04 04:29:04;;;;;;;1.00;1.00;;;-4.20;1.00;;;;;;5049410;28;20219;-73
2022/03/04 04:31:32;;;;;;;0.90;0.90;;;-4.20;1.00;;;;;;5049838;28;20199;-73
2022/03/04 04:33:58;;;;;;;1.00;1.00;;;-4.20;99.90;;;;;;5052442;28;20236;-72
2022/03/04 04:36:24;;;;;;;0.90;0.90;;;-4.20;99.90;;;;;;5053861;28;20179;-72
2022/03/04 04:38:50;;;;;;;0.97;0.97;;;-4.20;99.90;;;;;;5053983;28;20175;-74
2022/03/04 04:41:15;;;;;;;1.00;1.00;;;-4.30;99.90;;;;;;5053282;28;20191;-73
2022/03/04 04:43:41;;;;;;;1.00;1.00;;;-4.30;1.00;;;;;;5053744;28;20190;-72
2022/03/04 04:46:07;;;;;;;0.90;0.90;;;-4.30;1.00;;;;;;5053657;28;20175;-72
2022/03/04 04:48:33;;;;;;;0.90;0.90;;;-4.20;1.00;;;;;;5053662;28;20272;-72
2022/03/04 04:50:59;;;;;;;0.90;0.90;;;-4.20;1.00;;;;;;5052939;28;20210;-73
2022/03/04 04:53:28;;;;;;;0.97;0.97;;;-4.20;1.00;;;;;;5053784;28;20293;-73
2022/03/04 04:55:54;;;;;;;0.90;0.90;;;-4.20;1.00;;;;;;5053529;28;20167;-73
2022/03/04 04:58:20;;;;;;;1.00;1.00;;;-4.20;1.00;;;;;;5053521;28;20193;-73
2022/03/04 05:00:50;;;;;;;0.80;0.80;;;-4.20;99.90;;;;;;5055354;28;20897;-74
2022/03/04 05:03:16;;;;;;;0.90;0.90;;;-4.30;99.90;;;;;;5073849;28;20182;-73
2022/03/04 05:05:41;;;;;;;0.90;0.90;;;-4.30;99.90;;;;;;5074049;28;20174;-73
2022/03/04 05:08:07;;;;;;;0.90;0.90;;;-4.40;99.90;;;;;;5074213;28;20254;-72
2022/03/04 05:10:33;;;;;;;1.00;1.00;;;-4.40;99.90;;;;;;5073764;28;20226;-73
2022/03/04 05:12:58;;;;;;;0.90;0.90;;;-4.40;1.00;;;;;;5074217;28;20181;-73
2022/03/04 05:15:24;;;;;;;0.70;0.70;;;-4.40;1.00;;;;;;5074154;28;20174;-73
2022/03/04 05:17:53;;;;;;;0.80;0.80;;;-4.40;1.00;;;;;;5074057;28;20654;-73
2022/03/04 05:20:18;;;;;;;0.87;0.87;;;-4.50;1.00;;;;;;5055569;28;20186;-74
2022/03/04 05:22:44;;;;;;;1.00;1.00;;;-4.60;1.00;;;;;;5073699;28;20179;-72
2022/03/04 05:25:10;;;;;;;0.90;0.90;;;-4.70;1.00;;;;;;5072974;28;20194;-72
2022/03/04 05:27:36;;;;;;;0.80;0.80;;;-4.80;1.00;;;;;;5073352;28;20675;-73
2022/03/04 05:30:02;;;;;;;0.80;0.80;;;-4.70;1.00;;;;;;5072246;28;20289;-74
2022/03/04 05:32:27;;;;;;;0.80;0.80;;;-4.60;1.00;;;;;;5070223;28;20573;-72
2022/03/04 05:34:53;;;;;;;0.90;0.90;;;-4.60;1.00;;;;;;5073968;28;20175;-72
2022/03/04 05:37:18;;;;;;;0.90;0.90;;;-4.60;1.00;;;;;;5073680;28;20182;-72
2022/03/04 05:39:44;;;;;;;0.80;0.80;;;-4.60;1.00;;;;;;5073210;28;20198;-73
2022/03/04 05:42:09;;;;;;;0.80;0.80;;;-4.50;1.00;;;;;;5073569;28;20172;-72
2022/03/04 05:44:35;;;;;;;0.80;0.80;;;-4.60;1.00;;;;;;5072735;28;20183;-73
2022/03/04 05:47:00;;;;;;;0.90;0.90;;;-4.60;1.00;;;;;;5072844;28;20182;-71
2022/03/04 05:49:26;;;;;;;0.80;0.80;;;-4.60;1.00;;;;;;5072710;28;20627;-71
2022/03/04 05:51:52;;;;;;;0.80;0.80;;;-4.40;1.00;;;;;;5072015;28;20415;-74
2022/03/04 05:54:18;;;;;;;1.00;1.00;;;-4.50;1.00;;;;;;5073652;28;20174;-73
2022/03/04 05:56:43;;;;;;;0.80;0.80;;;-4.50;1.00;;;;;;5073360;28;20239;-74
2022/03/04 05:59:09;;;;;;;0.90;0.90;;;-4.50;1.00;;;;;;5072643;28;20205;-74
2022/03/04 06:01:34;;;;;;;0.90;0.90;;;-4.60;1.00;;;;;;5073591;28;20606;-73
2022/03/04 06:04:00;;;;;;;0.90;0.90;;;-4.60;1.00;;;;;;5073629;28;20384;-74
2022/03/04 06:06:26;;;;;;;0.83;0.83;;;-4.70;1.00;;;;;;5074035;28;20170;-74
2022/03/04 06:08:52;;;;;;;0.87;0.87;;;-4.70;1.00;;;;;;5072784;28;20218;-75
2022/03/04 06:11:19;;;;;;;0.90;0.90;;;-4.60;1.00;;;;;;5073192;28;20174;-73
2022/03/04 06:13:45;;;;;;;0.87;0.87;;;-4.70;1.00;;;;;;5072911;28;20175;-74
2022/03/04 06:16:10;;;;;;;0.90;0.90;;;-4.70;1.00;;;;;;5072848;28;20562;-75
2022/03/04 06:18:37;;;;;;;0.90;0.90;;;-4.60;1.00;;;;;;5073181;28;20170;-73
2022/03/04 06:21:03;;;;;;;0.80;0.80;;;-4.60;1.00;;;;;;5072783;28;20203;-72
2022/03/04 06:23:29;;;;;;;0.90;0.90;;;-4.50;1.00;;;;;;5073095;28;20170;-74
2022/03/04 06:25:55;;;;;;;0.87;0.87;;;-4.30;1.00;;;;;;5073062;28;20255;-73
2022/03/04 06:28:21;;;;;;;0.80;0.80;;;-4.20;1.00;;;;;;5073587;28;20293;-74
2022/03/04 06:30:47;;;;;;;0.80;0.80;;;-3.90;1.00;;;;;;5072267;28;20285;-73
2022/03/04 06:33:30;;;;;;;0.90;0.90;;;-3.70;99.90;;;;;;5072834;28;20186;-74
2022/03/04 06:35:59;;;;;;;0.90;0.90;;;-3.60;99.90;;;;;;5072894;28;20186;-76
2022/03/04 06:38:25;;;;;;;0.80;0.80;;;-3.70;99.90;;;;;;5072599;28;20171;-74
2022/03/04 06:40:51;;;;;;;0.90;0.90;;;-3.40;99.90;;;;;;5072067;28;20191;-76
2022/03/04 06:43:17;;;;;;;0.80;0.80;;;-3.10;95.30;;;;;;5072810;28;20182;-75
2022/03/04 06:45:45;;;;;;;0.93;0.93;;;-2.80;1.00;;;;;;5072924;28;20586;-75
2022/03/04 06:48:12;;;;;;;0.80;0.80;;;-2.50;1.00;;;;;;5073144;28;20237;-74
2022/03/04 06:50:37;;;;;;;0.93;0.93;;;-2.10;1.00;;;;;;5072080;28;20244;-74
2022/03/04 06:53:03;;;;;;;0.90;0.90;;;-1.60;1.00;;;;;;5072645;28;20598;-76
2022/03/04 06:55:30;;;;;;;0.80;0.80;;;-1.40;1.00;;;;;;5072454;28;20175;-75
2022/03/04 06:57:55;;;;;;;0.80;0.80;;;-0.90;99.90;;;;;;5072463;28;20208;-75
2022/03/04 07:00:21;;;;;;;0.80;0.80;;;-1.00;1.00;;;;;;5071858;28;20221;-75
2022/03/04 07:02:47;;;;;;;0.80;0.80;;;1.10;99.90;;;;;;5072273;28;20254;-75
2022/03/04 07:05:14;;;;;;;0.80;0.80;;;2.80;1.00;;;;;;5072287;28;20166;-75
2022/03/04 07:07:40;;;;;;;0.80;0.80;;;3.30;1.00;;;;;;5071984;28;20210;-75
2022/03/04 07:10:06;;;;;;;0.60;0.60;;;3.90;1.00;;;;;;5071553;28;20199;-75
2022/03/04 07:12:31;;;;;;;0.60;0.60;;;4.30;1.00;;;;;;5072846;28;20723;-73
2022/03/04 07:14:57;;;;;;;0.70;0.70;;;4.80;1.00;;;;;;5073430;28;20209;-75
2022/03/04 07:17:23;;;;;;;0.50;0.50;;;4.90;1.00;;;;;;5073407;28;20171;-74
2022/03/04 07:19:48;;;;;;;0.60;0.60;;;5.40;1.00;;;;;;5073176;28;20202;-74
2022/03/04 07:22:14;;;;;;;0.50;0.50;;;5.70;1.00;;;;;;5072162;28;20651;-73
2022/03/04 07:24:40;;;;;;;0.50;0.50;;;5.60;1.00;;;;;;5071602;28;20249;-74
2022/03/04 07:27:05;;;;;;;0.50;0.50;;;5.70;1.00;;;;;;5071670;28;20226;-74
2022/03/04 07:29:31;;;;;;;0.50;0.50;;;6.10;1.00;;;;;;5070853;28;20688;-73
2022/03/04 07:31:57;;;;;;;0.50;0.50;;;6.60;1.00;;;;;;5071738;28;20163;-74
2022/03/04 07:34:23;;;;;;;0.40;0.40;;;7.00;1.00;;;;;;5071625;28;20181;-74
2022/03/04 07:36:50;;;;;;;0.40;0.40;;;6.80;1.00;;;;;;5071643;28;20170;-74
2022/03/04 07:39:15;;;;;;;0.50;0.50;;;7.10;1.00;;;;;;5071088;28;20194;-75
2022/03/04 07:41:41;;;;;;;0.40;0.40;;;7.40;1.00;;;;;;5071324;28;20178;-75
2022/03/04 07:44:08;;;;;;;0.37;0.37;;;7.50;1.00;;;;;;5071614;28;20189;-75
2022/03/04 07:46:33;;;;;;;0.40;0.40;;;7.60;1.00;;;;;;5071584;28;20166;-74
2022/03/04 07:48:59;;;;;;;0.40;0.40;;;8.10;1.00;;;;;;5070823;28;20237;-74
2022/03/04 07:51:25;;;;;;;0.30;0.30;;;7.70;1.00;;;;;;5071741;28;20166;-75
2022/03/04 07:53:51;;;;;;;0.40;0.40;;;7.40;1.00;;;;;;5072556;28;20174;-74
2022/03/04 07:56:16;;;;;;;0.40;0.40;;;7.70;1.00;;;;;;5071284;28;20262;-74
2022/03/04 07:58:42;;;;;;;0.50;0.50;;;8.40;1.00;;;;;;5071558;28;20663;-74
2022/03/04 08:01:08;;;;;;;0.30;0.30;;;8.30;1.00;;;;;;5070889;28;20544;-73
2022/03/04 08:03:34;;;;;;;0.40;0.40;;;7.90;1.00;;;;;;5071557;28;20182;-74
2022/03/04 08:06:00;;;;;;;0.40;0.40;;;7.60;1.00;;;;;;5075770;28;20166;-75
2022/03/04 08:08:25;;;;;;;0.40;0.40;;;7.90;1.00;;;;;;5073004;28;20587;-76
2022/03/04 08:10:51;;;;;;;0.33;0.33;;;8.50;1.00;;;;;;5075306;28;20213;-74
2022/03/04 08:13:17;;;;;;;0.30;0.30;;;8.20;1.00;;;;;;5075563;28;20219;-75
2022/03/04 08:15:42;;;;;;;0.37;0.37;;;8.00;1.00;;;;;;5075632;28;20232;-73
2022/03/04 08:18:08;;;;;;;0.30;0.30;;;8.60;1.00;;;;;;5075296;28;20635;-76
2022/03/04 08:20:33;;;;;;;0.33;0.33;;;9.00;1.00;;;;;;5074615;28;20237;-76
2022/03/04 08:22:59;;;;;;;0.30;0.30;;;9.30;1.00;;;;;;5075036;28;20261;-75
2022/03/04 08:25:25;;;;;;;0.30;0.30;;;9.30;1.00;;;;;;5075081;28;20261;-75
2022/03/04 08:27:52;;;;;;;0.30;0.30;;;9.80;1.00;;;;;;5074961;28;20210;-75
2022/03/04 08:30:18;;;;;;;0.40;0.40;;;9.60;1.00;;;;;;5074597;28;20195;-77
2022/03/04 08:32:44;;;;;;;0.20;0.20;;;9.80;1.00;;;;;;5074815;28;20558;-75
2022/03/04 08:35:10;;;;;;;0.30;0.30;;;10.00;1.00;;;;;;5074962;28;20167;-76
2022/03/04 08:37:36;;;;;;;0.40;0.40;;;9.60;1.00;;;;;;5074959;28;20257;-75
2022/03/04 08:40:03;;;;;;;0.40;0.40;;;9.80;1.00;;;;;;5074199;28;20505;-75
2022/03/04 08:42:29;;;;;;;0.30;0.30;;;9.70;1.00;;;;;;5075068;28;20185;-76
2022/03/04 08:44:55;;;;;;;0.30;0.30;;;10.60;1.00;;;;;;5075019;28;20556;-76
2022/03/04 08:47:21;;;;;;;0.30;0.30;;;10.40;1.00;;;;;;5074939;28;20178;-74
2022/03/04 08:49:46;;;;;;;0.27;0.27;;;10.00;1.00;;;;;;5074450;28;20248;-72
2022/03/04 08:52:12;;;;;;;0.20;0.20;;;10.00;1.00;;;;;;5075105;28;20178;-74
2022/03/04 08:54:38;;;;;;;0.30;0.30;;;8.70;1.00;;;;;;5074633;28;20235;-74
2022/03/04 08:57:04;;;;;;;0.40;0.40;;;9.20;1.00;;;;;;5076559;28;20648;-76
2022/03/04 08:59:29;;;;;;;0.37;0.37;;;9.90;1.00;;;;;;5074050;28;20767;-75
2022/03/04 09:01:56;;;;;;;0.30;0.30;;;10.10;1.00;;;;;;5074658;28;20179;-76
2022/03/04 09:04:22;;;;;;;0.30;0.30;;;9.20;1.00;;;;;;5074476;28;20240;-75
2022/03/04 09:06:47;;;;;;;0.30;0.30;;;9.20;1.00;;;;;;5074629;28;20174;-74
2022/03/04 09:09:14;;;;;;;0.40;0.40;;;9.20;1.00;;;;;;5073516;28;20221;-75
2022/03/04 09:11:39;;;;;;;0.40;0.40;;;9.80;1.00;;;;;;5074276;28;20174;-75
2022/03/04 09:14:05;;;;;;;0.40;0.40;;;9.80;1.00;;;;;;5074368;28;20188;-75
2022/03/04 09:16:31;;;;;;;0.30;0.30;;;9.70;1.00;;;;;;5074129;28;20615;-76
2022/03/04 09:18:56;;;;;;;0.50;0.50;;;10.50;1.00;;;;;;5073143;28;20178;-75
2022/03/04 09:21:22;;;;;;;0.40;0.40;;;11.30;1.00;;;;;;5073462;28;20186;-74
2022/03/04 09:23:48;;;;;;;0.50;0.50;;;10.30;1.00;;;;;;5073987;28;20527;-75
2022/03/04 09:26:14;;;;;;;0.37;0.37;;;9.00;1.00;;;;;;5074032;28;20185;-75
2022/03/04 09:28:39;;;;;;;0.40;0.40;;;9.30;1.00;;;;;;5073744;28;20240;-73
2022/03/04 09:31:05;;;;;;;0.43;0.43;;;10.30;1.00;;;;;;5073449;28;20288;-74
2022/03/04 09:33:31;;;;;;;0.30;0.30;;;10.90;1.00;;;;;;5073853;28;20202;-75
2022/03/04 09:35:56;;;;;;;0.40;0.40;;;11.10;1.00;;;;;;5073921;28;20554;-76
2022/03/04 09:38:22;;;;;;;0.40;0.40;;;10.40;1.00;;;;;;5055925;28;20178;-76
2022/03/04 09:40:49;;;;;;;0.37;0.37;;;10.00;1.00;;;;;;5073529;28;20286;-75
2022/03/04 09:43:18;;;;;;;0.33;0.33;;;9.60;1.00;;;;;;5074377;28;20178;-75
2022/03/04 09:45:46;;;;;;;0.30;0.30;;;11.20;1.00;;;;;;5074023;28;20174;-75
2022/03/04 09:48:12;;;;;;;0.30;0.30;;;9.90;1.00;;;;;;5073729;28;20206;-74
2022/03/04 09:50:38;;;;;;;0.30;0.30;;;9.60;1.00;;;;;;5073424;28;20213;-76
2022/03/04 09:53:09;;;;;;;0.40;0.40;;;10.30;1.00;;;;;;5073474;28;20174;-74
2022/03/04 09:55:34;;;;;;;0.50;0.50;;;10.10;1.00;;;;;;5073757;28;20190;-76
2022/03/04 09:58:00;;;;;;;0.30;0.30;;;10.50;1.00;;;;;;5055539;28;20594;-75
2022/03/04 10:00:26;;;;;;;0.40;0.40;;;11.10;1.00;;;;;;5072650;28;20202;-74
2022/03/04 10:02:52;;;;;;;0.40;0.40;;;11.30;1.00;;;;;;5073442;28;20174;-73
2022/03/04 10:05:17;;;;;;;0.43;0.43;;;11.40;1.00;;;;;;5073189;28;20585;-75
2022/03/04 10:07:49;;;;;;;0.40;0.40;;;10.80;1.00;;;;;;5073455;28;20205;-75
2022/03/04 10:10:17;;;;;;;0.40;0.40;;;12.00;1.00;;;;;;5072604;28;20195;-75
2022/03/04 10:12:55;;;;;;;0.40;0.40;;;12.50;1.00;;;;;;5073124;28;20628;-76
2022/03/04 10:15:21;;;;;;;0.30;0.30;;;12.40;1.00;;;;;;5072995;28;20166;-76
2022/03/04 10:18:02;;;;;;;0.40;0.40;;;11.40;1.00;;;;;;5072963;28;20198;-76
2022/03/04 10:20:46;;;;;;;0.30;0.30;;;11.00;1.00;;;;;;5072406;28;20217;-76
2022/03/04 10:23:14;;;;;;;0.40;0.40;;;10.50;1.00;;;;;;5073049;28;20182;-75
2022/03/04 10:25:44;;;;;;;0.40;0.40;;;10.80;1.00;;;;;;5073013;28;20265;-75
2022/03/04 10:28:11;;;;;;;0.33;0.33;;;12.50;1.00;;;;;;5072807;28;20218;-74
2022/03/04 10:30:37;;;;;;;0.37;0.37;;;13.10;1.00;;;;;;5071646;28;20668;-75
2022/03/04 10:33:10;;;;;;;0.30;0.30;;;13.50;1.00;;;;;;5072781;28;20196;-74
2022/03/04 10:35:36;;;;;;;0.40;0.40;;;13.20;1.00;;;;;;5072678;28;20186;-76
2022/03/04 10:38:04;;;;;;;0.30;0.30;;;12.20;1.00;;;;;;5072818;28;20197;-75
2022/03/04 10:40:31;;;;;;;0.40;0.40;;;12.50;1.00;;;;;;5071681;28;20198;-75
2022/03/04 10:43:06;;;;;;;0.50;0.50;;;12.50;1.00;;;;;;5072100;28;20189;-76
2022/03/04 10:45:37;;;;;;;0.33;0.33;;;13.10;1.00;;;;;;5072142;28;20564;-76
2022/03/04 10:48:08;;;;;;;0.40;0.40;;;13.90;1.00;;;;;;5071978;28;20668;-76
2022/03/04 10:50:35;;;;;;;0.30;0.30;;;13.30;1.00;;;;;;5071276;28;20676;-74
2022/03/04 10:53:16;;;;;;;0.30;0.30;;;11.70;1.00;;;;;;5071906;28;20192;-75
2022/03/04 10:55:42;;;;;;;0.50;0.50;;;12.20;1.00;;;;;;5071910;28;20656;-74
2022/03/04 10:58:20;;;;;;;0.30;0.30;;;12.60;1.00;;;;;;5072011;28;20770;-75
2022/03/04 11:00:48;;;;;;;0.30;0.30;;;12.20;1.00;;;;;;5053288;28;20284;-75
2022/03/04 11:03:15;;;;;;;0.40;0.40;;;13.80;1.00;;;;;;5071967;28;20178;-76
2022/03/04 11:05:41;;;;;;;0.30;0.30;;;14.10;1.00;;;;;;5072553;28;20181;-76
2022/03/04 11:08:08;;;;;;;0.40;0.40;;;14.00;1.00;;;;;;5072179;28;20210;-76
2022/03/04 11:10:33;;;;;;;0.30;0.30;;;13.90;1.00;;;;;;5071381;28;20198;-76
2022/03/04 11:13:03;;;;;;;0.30;0.30;;;13.80;1.00;;;;;;5071922;28;20526;-76
2022/03/04 11:15:31;;;;;;;0.40;0.40;;;14.70;1.00;;;;;;5071711;28;20231;-76
2022/03/04 11:18:00;;;;;;;0.40;0.40;;;14.40;1.00;;;;;;5071737;28;20520;-74
2022/03/04 11:20:25;;;;;;;0.30;0.30;;;13.10;1.00;;;;;;5070789;28;20198;-75
2022/03/04 11:22:52;;;;;;;0.40;0.40;;;12.70;1.00;;;;;;5071509;28;20548;-76
2022/03/04 11:25:18;;;;;;;0.40;0.40;;;14.20;1.00;;;;;;5071539;28;20182;-76
2022/03/04 11:27:46;;;;;;;0.50;0.50;;;13.80;1.00;;;;;;5071386;28;20618;-73
2022/03/04 11:30:39;;;;;;;0.40;0.40;;;13.60;1.00;;;;;;5070788;28;20384;-76
2022/03/04 11:33:15;;;;;;;0.30;0.30;;;12.40;1.00;;;;;;5071297;28;20659;-75
2022/03/04 11:35:40;;;;;;;0.40;0.40;;;12.40;1.00;;;;;;5075169;28;20193;-76
2022/03/04 11:38:07;;;;;;;0.30;0.30;;;12.40;1.00;;;;;;5071500;28;20686;-75
2022/03/04 11:40:35;;;;;;;0.33;0.33;;;11.40;1.00;;;;;;5070746;28;20209;-76
2022/03/04 11:43:02;;;;;;;0.50;0.50;;;11.80;1.00;;;;;;5070656;28;20171;-76
2022/03/04 11:45:32;;;;;;;0.50;0.50;;;11.40;1.00;;;;;;5071452;28;20204;-76
2022/03/04 11:48:10;;;;;;;0.40;0.40;;;12.30;1.00;;;;;;5071252;28;20754;-76
2022/03/04 11:50:42;;;;;;;0.40;0.40;;;13.00;1.00;;;;;;5070793;28;20556;-76
2022/03/04 11:53:20;;;;;;;0.40;0.40;;;13.70;1.00;;;;;;5071427;28;20238;-78
2022/03/04 11:56:07;;;;;;;0.40;0.40;;;14.40;1.00;;;;;;5071724;28;20604;-75
2022/03/04 11:58:54;;;;;;;0.60;0.60;;;14.60;1.00;;;;;;5072906;28;20170;-75
2022/03/04 12:01:33;;;;;;;0.40;0.40;;;15.10;1.00;;;;;;5072386;28;20170;-75
2022/03/04 12:04:10;;;;;;;0.33;0.33;;;16.10;1.00;;;;;;5072516;28;20171;-75
2022/03/04 12:06:37;;;;;;;0.30;0.30;;;13.90;1.00;;;;;;5073930;28;20178;-75
2022/03/04 12:09:32;;;;;;;0.40;0.40;;;13.90;1.00;;;;;;5073868;28;20297;-75
2022/03/04 12:12:12;;;;;;;0.30;0.30;;;13.10;1.00;;;;;;5060666;28;20183;-76
2022/03/04 12:15:16;;;;;;;0.40;0.40;;;13.30;1.00;;;;;;5070989;28;20170;-77
2022/03/04 12:17:52;;;;;;;0.40;0.40;;;13.90;1.00;;;;;;5071217;28;20182;-77
2022/03/04 12:20:39;;;;;;;0.40;0.40;;;15.30;1.00;;;;;;5070992;28;20647;-75
2022/03/04 12:23:18;;;;;;;0.40;0.40;;;16.40;1.00;;;;;;5071757;28;20170;-75
2022/03/04 12:26:08;;;;;;;0.40;0.40;;;16.70;1.00;;;;;;5071999;28;20182;-76
2022/03/04 12:28:45;;;;;;;0.40;0.40;;;17.20;1.00;;;;;;5046031;28;20651;-77
2022/03/04 12:31:11;;;;;;;0.30;0.30;;;17.30;1.00;;;;;;5070876;28;20200;-75
2022/03/04 12:33:42;;;;;;;0.37;0.37;;;15.60;1.00;;;;;;5070729;28;20269;-74
2022/03/04 12:36:11;;;;;;;0.37;0.37;;;15.20;1.00;;;;;;5070813;28;20179;-74
2022/03/04 12:38:44;;;;;;;0.40;0.40;;;15.40;1.00;;;;;;5070873;28;20235;-75
2022/03/04 12:41:15;;;;;;;0.40;0.40;;;14.90;1.00;;;;;;5070434;28;20202;-75
2022/03/04 12:43:41;;;;;;;0.37;0.37;;;15.30;1.00;;;;;;5071674;28;20386;-76
2022/03/04 12:46:07;;;;;;;0.30;0.30;;;14.90;1.00;;;;;;5070431;28;20663;-78
2022/03/04 12:48:34;;;;;;;0.40;0.40;;;15.00;1.00;;;;;;5070829;28;20210;-76
2022/03/04 12:50:59;;;;;;;0.43;0.43;;;15.70;1.00;;;;;;5069770;28;20190;-75
2022/03/04 12:53:28;;;;;;;0.30;0.30;;;16.10;1.00;;;;;;5070375;28;20174;-74
2022/03/04 12:56:01;;;;;;;0.30;0.30;;;15.80;1.00;;;;;;5073676;28;20735;-75
2022/03/04 12:58:38;;;;;;;0.50;0.50;;;15.50;1.00;;;;;;5074457;28;20240;-74